createdAt,value
2022-08-08T00:00:55.848Z,11.78
2022-08-08T00:03:20.111Z,11.74
2022-08-08T00:06:03.887Z,11.62
2022-08-08T00:08:41.294Z,11.48
2022-08-08T00:11:25.424Z,11.23
2022-08-08T00:14:57.155Z,11.31
2022-08-08T00:17:48.322Z,11.22
2022-08-08T00:20:25.653Z,11.05
2022-08-08T00:22:56.206Z,11.06
2022-08-08T00:25:44.956Z,11.29
2022-08-08T00:28:35.330Z,11.12
2022-08-08T00:32:28.459Z,10.92
2022-08-08T00:34:57.492Z,10.94
2022-08-08T00:37:47.786Z,10.66
2022-08-08T00:41:08.138Z,10.60
2022-08-08T00:43:40.952Z,10.82
2022-08-08T00:46:26.520Z,11.00
2022-08-08T00:49:22.721Z,10.96
2022-08-08T00:52:19.943Z,10.95
2022-08-08T00:55:53.429Z,10.93
2022-08-08T00:58:34.733Z,10.72
2022-08-08T01:01:29.357Z,10.83
2022-08-08T01:04:31.036Z,10.55
2022-08-08T01:07:23.718Z,10.38
2022-08-08T01:10:13.105Z,10.32
2022-08-08T01:12:48.037Z,10.38
2022-08-08T01:15:43.639Z,10.60
2022-08-08T01:18:25.588Z,10.36
2022-08-08T01:22:07.170Z,10.15
2022-08-08T01:24:53.978Z,10.22
2022-08-08T01:27:59.466Z,10.25
2022-08-08T01:30:31.288Z,10.41
2022-08-08T01:33:00.968Z,10.53
2022-08-08T01:35:52.457Z,10.53
2022-08-08T01:38:40.974Z,10.61
2022-08-08T01:41:27.345Z,10.51
2022-08-08T01:44:22.124Z,10.52
2022-08-08T01:48:14.472Z,10.28
2022-08-08T01:50:17.060Z,10.31
2022-08-08T01:52:59.475Z,10.40
2022-08-08T01:56:31.212Z,10.46
2022-08-08T01:59:16.169Z,10.35
2022-08-08T02:01:59.942Z,10.14
2022-08-08T02:04:54.008Z,10.12
2022-08-08T02:07:48.858Z,10.08
2022-08-08T02:10:45.020Z,10.00
2022-08-08T02:13:54.748Z,10.04
2022-08-08T02:16:36.128Z,10.31
2022-08-08T02:19:26.852Z,10.17
2022-08-08T02:22:46.031Z,9.92
2022-08-08T02:25:46.791Z,9.79
2022-08-08T02:28:35.145Z,9.76
2022-08-08T02:31:44.028Z,9.74
2022-08-08T02:34:08.580Z,9.74
2022-08-08T02:36:51.440Z,9.83
2022-08-08T02:40:00.242Z,10.03
2022-08-08T02:42:41.534Z,9.95
2022-08-08T02:45:24.690Z,9.87
2022-08-08T02:48:09.524Z,9.85
2022-08-08T02:51:04.385Z,9.89
2022-08-08T02:53:52.307Z,10.03
2022-08-08T02:56:52.931Z,10.25
2022-08-08T02:59:57.688Z,10.51
2022-08-08T03:03:00.025Z,10.60
2022-08-08T03:05:46.532Z,10.67
2022-08-08T03:08:52.146Z,10.77
2022-08-08T03:11:59.824Z,10.69
2022-08-08T03:16:01.027Z,10.65
2022-08-08T03:18:04.870Z,10.55
2022-08-08T03:20:46.706Z,10.58
2022-08-08T03:23:17.900Z,10.57
2022-08-08T03:25:46.652Z,10.78
2022-08-08T03:28:18.849Z,10.62
2022-08-08T03:30:49.079Z,10.69
2022-08-08T03:33:55.766Z,10.73
2022-08-08T03:36:27.434Z,10.66
2022-08-08T03:39:07.508Z,10.63
2022-08-08T03:42:27.536Z,10.69
2022-08-08T03:44:33.638Z,10.77
2022-08-08T03:47:13.915Z,10.47
2022-08-08T03:50:00.513Z,10.29
2022-08-08T03:52:32.037Z,10.30
2022-08-08T03:55:09.920Z,10.29
2022-08-08T03:58:34.250Z,10.40
2022-08-08T04:00:30.387Z,10.51
2022-08-08T04:03:06.306Z,10.66
2022-08-08T04:05:39.876Z,10.78
2022-08-08T04:08:33.090Z,10.67
2022-08-08T04:11:03.055Z,10.62
2022-08-08T04:14:03.083Z,10.62
2022-08-08T04:16:38.466Z,10.73
2022-08-08T04:19:24.101Z,10.77
2022-08-08T04:21:51.699Z,10.85
2022-08-08T04:24:28.240Z,10.91
2022-08-08T04:26:58.772Z,11.00
2022-08-08T04:29:26.295Z,11.15
2022-08-08T04:31:59.854Z,11.23
2022-08-08T04:34:29.081Z,11.32
2022-08-08T04:36:59.582Z,11.45
2022-08-08T04:40:05.927Z,11.43
2022-08-08T04:42:17.198Z,11.46
2022-08-08T04:44:47.556Z,11.45
2022-08-08T04:47:16.571Z,11.45
2022-08-08T04:50:00.312Z,11.43
2022-08-08T04:52:33.843Z,11.43
2022-08-08T04:55:02.164Z,11.39
2022-08-08T04:57:29.073Z,11.35
2022-08-08T04:59:58.016Z,11.43
2022-08-08T05:02:30.816Z,11.43
2022-08-08T05:04:59.187Z,11.49
2022-08-08T05:07:37.735Z,11.46
2022-08-08T05:10:12.676Z,11.38
2022-08-08T05:12:53.343Z,11.31
2022-08-08T05:15:26.475Z,11.41
2022-08-08T05:18:13.173Z,11.52
2022-08-08T05:20:50.409Z,11.30
2022-08-08T05:23:19.558Z,11.33
2022-08-08T05:25:49.661Z,11.40
2022-08-08T05:28:16.514Z,11.37
2022-08-08T05:31:19.363Z,11.43
2022-08-08T05:33:50.175Z,11.46
2022-08-08T05:36:25.579Z,11.52
2022-08-08T05:38:57.404Z,11.60
2022-08-08T05:41:27.913Z,11.75
2022-08-08T05:44:04.941Z,11.92
2022-08-08T05:46:33.349Z,12.10
2022-08-08T05:49:00.863Z,12.21
2022-08-08T05:51:28.100Z,12.30
2022-08-08T05:54:28.071Z,12.43
2022-08-08T05:57:04.686Z,12.56
2022-08-08T05:59:58.830Z,12.71
2022-08-08T06:02:48.826Z,12.79
2022-08-08T06:05:34.254Z,12.93
2022-08-08T06:08:09.348Z,13.08
2022-08-08T06:10:40.739Z,13.26
2022-08-08T06:13:08.859Z,13.33
2022-08-08T06:15:50.806Z,13.51
2022-08-08T06:18:22.229Z,13.68
2022-08-08T06:20:52.822Z,13.81
2022-08-08T06:23:49.038Z,14.04
2022-08-08T06:26:44.590Z,14.34
2022-08-08T06:29:48.396Z,14.56
2022-08-08T06:32:10.663Z,14.87
2022-08-08T06:34:52.640Z,15.09
2022-08-08T06:37:37.351Z,15.26
2022-08-08T06:40:14.299Z,15.41
2022-08-08T06:43:09.612Z,15.78
2022-08-08T06:45:39.134Z,15.98
2022-08-08T06:48:06.512Z,16.35
2022-08-08T06:50:33.815Z,16.74
2022-08-08T06:53:14.015Z,16.85
2022-08-08T06:55:47.082Z,16.90
2022-08-08T06:58:14.380Z,16.99
2022-08-08T07:00:49.252Z,17.29
2022-08-08T07:04:35.371Z,17.59
2022-08-08T07:06:31.617Z,18.08
2022-08-08T07:09:09.139Z,18.29
2022-08-08T07:11:46.067Z,18.03
2022-08-08T07:14:18.129Z,18.10
2022-08-08T07:17:03.156Z,18.16
2022-08-08T07:20:05.379Z,18.33
2022-08-08T07:22:49.375Z,18.28
2022-08-08T07:25:19.497Z,18.39
2022-08-08T07:28:02.579Z,18.41
2022-08-08T07:30:35.398Z,18.64
2022-08-08T07:33:02.050Z,18.55
2022-08-08T07:35:30.899Z,18.81
2022-08-08T07:38:10.446Z,18.81
2022-08-08T07:40:46.715Z,18.87
2022-08-08T07:43:14.864Z,19.30
2022-08-08T07:46:05.845Z,19.88
2022-08-08T07:48:30.334Z,19.74
2022-08-08T07:51:01.179Z,19.88
2022-08-08T07:54:02.367Z,20.01
2022-08-08T07:56:35.767Z,19.49
2022-08-08T07:59:05.963Z,19.02
2022-08-08T08:02:35.042Z,19.24
2022-08-08T08:04:29.185Z,19.58
2022-08-08T08:07:00.755Z,19.33
2022-08-08T08:09:33.157Z,19.21
2022-08-08T08:12:03.246Z,19.48
2022-08-08T08:14:49.655Z,19.44
2022-08-08T08:17:21.049Z,19.48
2022-08-08T08:19:57.269Z,19.51
2022-08-08T08:22:31.231Z,19.36
2022-08-08T08:24:59.189Z,19.73
2022-08-08T08:27:37.628Z,19.40
2022-08-08T08:30:05.814Z,19.34
2022-08-08T08:32:36.712Z,19.20
2022-08-08T08:35:08.155Z,19.36
2022-08-08T08:37:52.966Z,19.71
2022-08-08T08:40:21.742Z,20.11
2022-08-08T08:42:49.739Z,19.61
2022-08-08T08:45:22.613Z,19.46
2022-08-08T08:47:58.155Z,19.60
2022-08-08T08:50:32.559Z,19.72
2022-08-08T08:53:27.532Z,20.13
2022-08-08T08:56:02.522Z,19.72
2022-08-08T08:58:43.094Z,19.89
2022-08-08T09:01:18.595Z,19.99
2022-08-08T09:03:50.403Z,19.99
2022-08-08T09:06:28.690Z,19.71
2022-08-08T09:09:26.204Z,19.77
2022-08-08T09:12:07.621Z,19.97
2022-08-08T09:14:35.652Z,19.54
2022-08-08T09:17:17.412Z,19.85
2022-08-08T09:22:00.139Z,20.26
2022-08-08T09:22:35.690Z,20.18
2022-08-08T09:25:04.137Z,20.20
2022-08-08T09:27:55.769Z,20.81
2022-08-08T09:30:20.156Z,20.90
2022-08-08T09:33:54.396Z,20.85
2022-08-08T09:35:50.234Z,20.35
2022-08-08T09:38:52.902Z,20.60
2022-08-08T09:42:14.437Z,20.64
2022-08-08T09:45:15.482Z,20.65
2022-08-08T09:48:11.384Z,20.73
2022-08-08T09:50:32.426Z,20.94
2022-08-08T09:53:23.633Z,20.75
2022-08-08T09:56:05.444Z,20.72
2022-08-08T09:58:44.884Z,20.98
2022-08-08T10:01:15.163Z,21.14
2022-08-08T10:04:02.433Z,20.83
2022-08-08T10:06:32.465Z,20.98
2022-08-08T10:09:00.129Z,21.44
2022-08-08T10:12:27.399Z,21.07
2022-08-08T10:14:28.443Z,20.69
2022-08-08T10:17:56.062Z,20.65
2022-08-08T10:20:00.062Z,21.21
2022-08-08T10:22:32.834Z,21.11
2022-08-08T10:25:16.589Z,21.48
2022-08-08T10:27:50.088Z,21.19
2022-08-08T10:30:57.033Z,21.21
2022-08-08T10:33:09.713Z,21.18
2022-08-08T10:36:07.358Z,21.02
2022-08-08T10:38:30.692Z,21.58
2022-08-08T10:41:05.119Z,21.50
2022-08-08T10:43:40.328Z,21.81
2022-08-08T10:46:30.140Z,21.81
2022-08-08T10:48:59.503Z,21.68
2022-08-08T10:51:40.978Z,21.77
2022-08-08T10:54:24.717Z,21.56
2022-08-08T10:57:03.913Z,22.01
2022-08-08T10:59:31.372Z,21.65
2022-08-08T11:02:07.486Z,21.78
2022-08-08T11:04:45.385Z,22.07
2022-08-08T11:08:31.098Z,22.07
2022-08-08T11:10:29.184Z,22.40
2022-08-08T11:13:25.764Z,22.01
2022-08-08T11:15:59.012Z,22.26
2022-08-08T11:18:35.791Z,22.09
2022-08-08T11:21:09.892Z,22.08
2022-08-08T11:23:41.549Z,22.25
2022-08-08T11:26:12.840Z,22.23
2022-08-08T11:28:46.499Z,22.41
2022-08-08T11:31:16.602Z,22.50
2022-08-08T11:33:53.233Z,22.75
2022-08-08T11:36:32.997Z,22.50
2022-08-08T11:39:04.983Z,22.56
2022-08-08T11:41:38.880Z,22.58
2022-08-08T11:44:10.931Z,22.60
2022-08-08T11:46:39.929Z,22.56
2022-08-08T11:49:14.093Z,22.28
2022-08-08T11:51:49.898Z,22.65
2022-08-08T11:54:33.616Z,22.56
2022-08-08T11:57:18.476Z,22.92
2022-08-08T12:00:02.805Z,22.56
2022-08-08T12:02:45.290Z,22.85
2022-08-08T12:05:13.090Z,23.34
2022-08-08T12:07:53.699Z,23.20
2022-08-08T12:10:27.034Z,23.27
2022-08-08T12:13:22.203Z,22.92
2022-08-08T12:16:15.699Z,23.12
2022-08-08T12:18:50.726Z,23.36
2022-08-08T12:21:25.749Z,23.41
2022-08-08T12:24:27.874Z,23.33
2022-08-08T12:26:57.017Z,23.10
2022-08-08T12:29:42.502Z,23.12
2022-08-08T12:32:19.958Z,22.98
2022-08-08T12:35:01.275Z,23.04
2022-08-08T12:37:41.266Z,22.93
2022-08-08T12:40:22.561Z,22.88
2022-08-08T12:42:51.832Z,23.00
2022-08-08T12:45:53.847Z,23.30
2022-08-08T12:48:10.057Z,23.22
2022-08-08T12:50:57.739Z,23.08
2022-08-08T12:53:35.138Z,23.29
2022-08-08T12:56:49.624Z,23.34
2022-08-08T12:59:44.586Z,23.41
2022-08-08T13:02:28.004Z,23.21
2022-08-08T13:05:01.045Z,23.46
2022-08-08T13:08:03.461Z,23.81
2022-08-08T13:10:32.998Z,23.31
2022-08-08T13:13:05.901Z,23.38
2022-08-08T13:15:35.723Z,23.44
2022-08-08T13:18:10.974Z,23.17
2022-08-08T13:20:45.311Z,23.00
2022-08-08T13:23:46.265Z,22.62
2022-08-08T13:26:18.492Z,22.71
2022-08-08T13:28:45.820Z,22.58
2022-08-08T13:31:16.399Z,22.91
2022-08-08T13:33:47.353Z,22.75
2022-08-08T13:36:17.196Z,22.51
2022-08-08T13:38:44.919Z,22.31
2022-08-08T13:41:16.539Z,22.62
2022-08-08T13:43:47.728Z,22.35
2022-08-08T13:46:26.847Z,22.36
2022-08-08T13:50:33.886Z,22.45
2022-08-08T13:51:57.313Z,22.07
2022-08-08T13:54:29.577Z,22.14
2022-08-08T13:58:07.203Z,22.00
2022-08-08T14:00:22.025Z,22.35
2022-08-08T14:03:00.751Z,22.07
2022-08-08T14:05:34.144Z,22.38
2022-08-08T14:08:16.457Z,22.37
2022-08-08T14:10:51.795Z,22.44
2022-08-08T14:13:33.201Z,22.37
2022-08-08T14:16:08.003Z,22.41
2022-08-08T14:18:57.854Z,22.48
2022-08-08T14:21:40.350Z,22.10
2022-08-08T14:24:30.145Z,22.31
2022-08-08T14:26:57.569Z,22.09
2022-08-08T14:29:29.981Z,22.06
2022-08-08T14:32:09.964Z,22.07
2022-08-08T14:34:42.725Z,22.16
2022-08-08T14:37:12.875Z,22.05
2022-08-08T14:39:53.825Z,21.78
2022-08-08T14:42:54.631Z,21.92
2022-08-08T14:45:33.564Z,21.98
2022-08-08T14:48:16.387Z,22.12
2022-08-08T14:51:06.688Z,21.40
2022-08-08T14:53:55.207Z,21.81
2022-08-08T14:56:25.115Z,21.98
2022-08-08T14:58:52.269Z,22.02
2022-08-08T15:01:27.894Z,22.11
2022-08-08T15:04:08.169Z,21.77
2022-08-08T15:06:35.668Z,21.82
2022-08-08T15:09:04.275Z,21.59
2022-08-08T15:11:39.405Z,21.70
2022-08-08T15:14:14.507Z,21.61
2022-08-08T15:16:44.367Z,21.14
2022-08-08T15:19:12.032Z,21.45
2022-08-08T15:21:42.777Z,21.59
2022-08-08T15:24:13.878Z,21.64
2022-08-08T15:26:52.952Z,21.87
2022-08-08T15:29:22.692Z,21.81
2022-08-08T15:32:18.062Z,21.59
2022-08-08T15:34:38.760Z,21.61
2022-08-08T15:37:06.847Z,21.56
2022-08-08T15:39:37.448Z,22.18
2022-08-08T15:42:07.018Z,21.95
2022-08-08T15:44:37.755Z,21.82
2022-08-08T15:47:16.071Z,21.66
2022-08-08T15:49:47.851Z,21.99
2022-08-08T15:52:16.342Z,21.68
2022-08-08T15:54:47.777Z,21.62
2022-08-08T15:57:15.545Z,21.94
2022-08-08T16:00:25.648Z,21.77
2022-08-08T16:02:32.046Z,21.80
2022-08-08T16:05:00.452Z,21.77
2022-08-08T16:07:51.019Z,21.79
2022-08-08T16:13:12.191Z,21.84
2022-08-08T16:13:30.619Z,21.62
2022-08-08T16:15:58.831Z,21.79
2022-08-08T16:18:35.911Z,21.36
2022-08-08T16:21:02.801Z,21.47
2022-08-08T16:23:33.338Z,21.44
2022-08-08T16:26:13.102Z,21.56
2022-08-08T16:28:49.373Z,21.47
2022-08-08T16:31:15.961Z,21.01
2022-08-08T16:33:57.993Z,21.26
2022-08-08T16:36:33.703Z,21.02
2022-08-08T16:39:01.497Z,21.40
2022-08-08T16:41:36.970Z,21.03
2022-08-08T16:44:04.795Z,21.28
2022-08-08T16:46:42.819Z,21.14
2022-08-08T16:49:13.378Z,21.58
2022-08-08T16:55:01.181Z,21.33
2022-08-08T16:55:02.068Z,21.25
2022-08-08T16:57:23.464Z,21.21
2022-08-08T17:00:08.982Z,21.18
2022-08-08T17:02:38.586Z,21.22
2022-08-08T17:05:08.235Z,21.26
2022-08-08T17:07:37.898Z,21.10
2022-08-08T17:10:08.745Z,21.08
2022-08-08T17:12:36.717Z,20.81
2022-08-08T17:15:17.910Z,21.02
2022-08-08T17:18:02.673Z,21.04
2022-08-08T17:20:32.133Z,20.91
2022-08-08T17:23:17.769Z,20.80
2022-08-08T17:25:53.517Z,21.09
2022-08-08T17:28:34.289Z,20.97
2022-08-08T17:31:44.829Z,20.89
2022-08-08T17:34:37.524Z,20.77
2022-08-08T17:36:36.850Z,20.89
2022-08-08T17:39:05.002Z,20.47
2022-08-08T17:41:58.642Z,20.29
2022-08-08T17:44:29.482Z,20.30
2022-08-08T17:46:58.044Z,20.37
2022-08-08T17:49:28.587Z,20.69
2022-08-08T17:51:55.453Z,20.54
2022-08-08T17:54:25.949Z,20.67
2022-08-08T17:56:54.038Z,20.41
2022-08-08T17:59:23.510Z,20.33
2022-08-08T18:01:58.485Z,20.19
2022-08-08T18:04:31.177Z,20.36
2022-08-08T18:07:01.191Z,20.22
2022-08-08T18:09:31.396Z,20.19
2022-08-08T18:12:08.002Z,19.92
2022-08-08T18:14:38.189Z,19.90
2022-08-08T18:17:06.678Z,20.11
2022-08-08T18:20:37.132Z,19.64
2022-08-08T18:22:49.852Z,19.68
2022-08-08T18:25:17.719Z,19.63
2022-08-08T18:27:45.837Z,19.31
2022-08-08T18:30:13.348Z,19.40
2022-08-08T18:32:42.159Z,19.20
2022-08-08T18:35:15.778Z,19.17
2022-08-08T18:37:47.988Z,19.27
2022-08-08T18:40:15.702Z,19.25
2022-08-08T18:42:50.036Z,19.09
2022-08-08T18:46:00.915Z,18.87
2022-08-08T18:48:07.433Z,18.76
2022-08-08T18:50:39.687Z,19.14
2022-08-08T18:53:17.277Z,18.90
2022-08-08T18:55:46.425Z,18.61
2022-08-08T18:58:13.914Z,18.67
2022-08-08T19:00:46.441Z,18.61
2022-08-08T19:03:13.693Z,18.47
2022-08-08T19:05:46.605Z,18.52
2022-08-08T19:08:25.736Z,18.13
2022-08-08T19:10:59.461Z,17.95
2022-08-08T19:13:53.756Z,17.82
2022-08-08T19:16:19.979Z,17.72
2022-08-08T19:18:53.077Z,17.78
2022-08-08T19:21:31.105Z,17.62
2022-08-08T19:24:05.290Z,17.44
2022-08-08T19:26:34.678Z,17.42
2022-08-08T19:29:01.745Z,17.32
2022-08-08T19:31:31.707Z,17.26
2022-08-08T19:34:35.715Z,17.30
2022-08-08T19:36:58.715Z,17.64
2022-08-08T19:39:30.835Z,17.92
2022-08-08T19:42:03.617Z,17.76
2022-08-08T19:44:45.741Z,17.72
2022-08-08T19:47:14.231Z,17.73
2022-08-08T19:49:43.125Z,17.66
2022-08-08T19:52:13.538Z,17.59
2022-08-08T19:54:41.485Z,17.78
2022-08-08T19:57:10.021Z,17.59
2022-08-08T19:59:41.399Z,17.44
2022-08-08T20:02:10.706Z,17.09
2022-08-08T20:04:38.095Z,17.12
2022-08-08T20:08:28.533Z,17.03
2022-08-08T20:09:58.668Z,16.97
2022-08-08T20:12:32.600Z,17.11
2022-08-08T20:15:14.561Z,17.09
2022-08-08T20:17:45.964Z,17.15
2022-08-08T20:20:16.027Z,17.29
2022-08-08T20:22:52.715Z,17.41
2022-08-08T20:25:21.824Z,17.12
2022-08-08T20:27:50.519Z,16.78
2022-08-08T20:30:52.373Z,17.06
2022-08-08T20:33:19.978Z,16.85
2022-08-08T20:35:58.982Z,16.80
2022-08-08T20:38:32.716Z,16.61
2022-08-08T20:41:05.570Z,16.55
2022-08-08T20:43:43.373Z,16.49
2022-08-08T20:46:10.887Z,16.28
2022-08-08T20:48:37.484Z,16.22
2022-08-08T20:51:05.542Z,16.12
2022-08-08T20:53:59.232Z,16.01
2022-08-08T20:56:20.222Z,15.95
2022-08-08T20:59:05.574Z,16.00
2022-08-08T21:02:05.569Z,16.14
2022-08-08T21:04:20.691Z,16.02
2022-08-08T21:06:52.871Z,15.90
2022-08-08T21:09:20.058Z,15.89
2022-08-08T21:11:51.266Z,15.79
2022-08-08T21:14:30.351Z,15.59
2022-08-08T21:17:00.495Z,15.61
2022-08-08T21:19:44.338Z,15.58
2022-08-08T21:22:15.515Z,15.58
2022-08-08T21:24:52.574Z,15.57
2022-08-08T21:28:05.264Z,15.60
2022-08-08T21:30:18.862Z,15.51
2022-08-08T21:32:52.418Z,15.49
2022-08-08T21:36:18.205Z,15.25
2022-08-08T21:38:16.565Z,15.13
2022-08-08T21:40:55.860Z,14.96
2022-08-08T21:43:34.188Z,14.98
2022-08-08T21:48:05.840Z,14.95
2022-08-08T21:48:53.897Z,14.92
2022-08-08T21:54:23.407Z,15.29
2022-08-08T21:54:32.648Z,15.24
2022-08-08T21:56:59.402Z,15.15
2022-08-08T21:59:28.474Z,15.19
2022-08-08T22:02:13.367Z,15.26
2022-08-08T22:04:42.785Z,15.05
2022-08-08T22:07:09.325Z,14.98
2022-08-08T22:09:40.942Z,14.96
2022-08-08T22:12:09.778Z,14.88
2022-08-08T22:14:42.771Z,14.76
2022-08-08T22:17:10.439Z,14.58
2022-08-08T22:20:12.215Z,14.34
2022-08-08T22:22:28.735Z,14.18
2022-08-08T22:24:56.835Z,13.99
2022-08-08T22:27:38.861Z,13.87
2022-08-08T22:30:14.640Z,13.81
2022-08-08T22:32:41.367Z,13.73
2022-08-08T22:35:08.299Z,13.90
2022-08-08T22:37:53.546Z,13.69
2022-08-08T22:40:21.458Z,13.57
2022-08-08T22:42:48.206Z,13.43
2022-08-08T22:45:15.709Z,13.33
2022-08-08T22:47:46.729Z,13.28
2022-08-08T22:50:27.336Z,13.22
2022-08-08T22:54:32.896Z,13.08
2022-08-08T22:55:58.972Z,12.99
2022-08-08T22:58:31.113Z,12.94
2022-08-08T23:01:00.158Z,12.85
2022-08-08T23:03:34.289Z,12.87
2022-08-08T23:06:16.035Z,12.83
2022-08-08T23:08:44.537Z,12.76
2022-08-08T23:11:58.126Z,12.73
2022-08-08T23:14:11.400Z,12.66
2022-08-08T23:16:43.565Z,12.64
2022-08-08T23:19:12.909Z,12.65
2022-08-08T23:21:42.203Z,12.66
2022-08-08T23:24:09.380Z,12.74
2022-08-08T23:26:35.910Z,12.82
2022-08-08T23:29:04.547Z,12.81
2022-08-08T23:31:38.815Z,12.63
2022-08-08T23:34:16.964Z,12.46
2022-08-08T23:36:45.917Z,12.47
2022-08-08T23:39:13.249Z,12.44
2022-08-08T23:41:46.093Z,12.41
2022-08-08T23:44:14.292Z,12.41
2022-08-08T23:49:04.328Z,12.34
2022-08-08T23:49:27.656Z,12.37
2022-08-08T23:52:04.666Z,12.23
2022-08-08T23:54:41.629Z,12.21
2022-08-08T23:57:15.251Z,12.08
